sensor_id;sensor_type;location;lat;lon;timestamp;P1;durP1;ratioP1;P2;durP2;ratioP2
64405;SDS011;50730;48.628;8.994;2023-08-31T00:02:01;7.07;;;2.40;;
64405;SDS011;50730;48.628;8.994;2023-08-31T00:04:28;4.18;;;2.10;;
64405;SDS011;50730;48.628;8.994;2023-08-31T00:06:55;4.85;;;2.28;;
64405;SDS011;50730;48.628;8.994;2023-08-31T00:09:23;7.55;;;2.30;;
64405;SDS011;50730;48.628;8.994;2023-08-31T00:11:50;5.05;;;1.98;;
64405;SDS011;50730;48.628;8.994;2023-08-31T00:14:17;3.47;;;1.80;;
64405;SDS011;50730;48.628;8.994;2023-08-31T00:16:46;4.53;;;2.00;;
64405;SDS011;50730;48.628;8.994;2023-08-31T00:19:13;3.55;;;1.92;;
64405;SDS011;50730;48.628;8.994;2023-08-31T00:21:40;3.45;;;2.10;;
64405;SDS011;50730;48.628;8.994;2023-08-31T00:24:08;8.60;;;2.30;;
64405;SDS011;50730;48.628;8.994;2023-08-31T00:26:36;4.97;;;2.08;;
64405;SDS011;50730;48.628;8.994;2023-08-31T00:29:05;9.10;;;3.20;;
64405;SDS011;50730;48.628;8.994;2023-08-31T00:31:34;4.30;;;2.25;;
64405;SDS011;50730;48.628;8.994;2023-08-31T00:34:03;4.50;;;2.30;;
64405;SDS011;50730;48.628;8.994;2023-08-31T00:36:32;6.25;;;2.20;;
64405;SDS011;50730;48.628;8.994;2023-08-31T00:39:02;3.42;;;2.00;;
64405;SDS011;50730;48.628;8.994;2023-08-31T00:41:33;2.15;;;1.83;;
64405;SDS011;50730;48.628;8.994;2023-08-31T00:44:01;3.38;;;1.90;;
64405;SDS011;50730;48.628;8.994;2023-08-31T00:46:29;5.35;;;1.92;;
64405;SDS011;50730;48.628;8.994;2023-08-31T00:48:56;3.08;;;1.95;;
64405;SDS011;50730;48.628;8.994;2023-08-31T00:51:26;4.10;;;1.90;;
64405;SDS011;50730;48.628;8.994;2023-08-31T00:53:53;3.47;;;1.40;;
64405;SDS011;50730;48.628;8.994;2023-08-31T00:56:20;7.03;;;1.75;;
64405;SDS011;50730;48.628;8.994;2023-08-31T00:58:48;4.32;;;2.05;;
64405;SDS011;50730;48.628;8.994;2023-08-31T01:01:17;5.32;;;2.60;;
64405;SDS011;50730;48.628;8.994;2023-08-31T01:03:47;5.60;;;2.80;;
64405;SDS011;50730;48.628;8.994;2023-08-31T01:06:18;4.78;;;2.67;;
64405;SDS011;50730;48.628;8.994;2023-08-31T01:08:50;5.07;;;3.08;;
64405;SDS011;50730;48.628;8.994;2023-08-31T01:11:22;6.22;;;2.72;;
64405;SDS011;50730;48.628;8.994;2023-08-31T01:13:51;3.58;;;2.42;;
64405;SDS011;50730;48.628;8.994;2023-08-31T01:16:20;6.38;;;2.47;;
64405;SDS011;50730;48.628;8.994;2023-08-31T01:18:50;6.10;;;2.42;;
64405;SDS011;50730;48.628;8.994;2023-08-31T01:21:23;5.80;;;2.38;;
64405;SDS011;50730;48.628;8.994;2023-08-31T01:23:53;9.93;;;2.90;;
64405;SDS011;50730;48.628;8.994;2023-08-31T01:26:20;4.32;;;2.38;;
64405;SDS011;50730;48.628;8.994;2023-08-31T01:28:48;3.75;;;2.30;;
64405;SDS011;50730;48.628;8.994;2023-08-31T01:31:16;4.90;;;3.08;;
64405;SDS011;50730;48.628;8.994;2023-08-31T01:33:43;7.07;;;2.90;;
64405;SDS011;50730;48.628;8.994;2023-08-31T01:36:12;4.50;;;2.78;;
64405;SDS011;50730;48.628;8.994;2023-08-31T01:38:45;7.60;;;3.00;;
64405;SDS011;50730;48.628;8.994;2023-08-31T01:41:17;4.75;;;3.03;;
64405;SDS011;50730;48.628;8.994;2023-08-31T01:43:46;5.05;;;2.75;;
64405;SDS011;50730;48.628;8.994;2023-08-31T01:46:15;9.63;;;2.78;;
64405;SDS011;50730;48.628;8.994;2023-08-31T01:48:43;5.97;;;3.17;;
64405;SDS011;50730;48.628;8.994;2023-08-31T01:51:10;8.60;;;3.53;;
64405;SDS011;50730;48.628;8.994;2023-08-31T01:53:37;5.47;;;3.80;;
64405;SDS011;50730;48.628;8.994;2023-08-31T01:56:05;6.75;;;3.60;;
64405;SDS011;50730;48.628;8.994;2023-08-31T01:58:33;4.90;;;3.13;;
64405;SDS011;50730;48.628;8.994;2023-08-31T02:01:00;6.47;;;3.45;;
64405;SDS011;50730;48.628;8.994;2023-08-31T02:03:27;8.30;;;3.47;;
64405;SDS011;50730;48.628;8.994;2023-08-31T02:05:55;7.88;;;3.95;;
64405;SDS011;50730;48.628;8.994;2023-08-31T02:08:22;7.63;;;3.53;;
64405;SDS011;50730;48.628;8.994;2023-08-31T02:10:49;8.25;;;3.58;;
64405;SDS011;50730;48.628;8.994;2023-08-31T02:13:18;9.45;;;4.18;;
64405;SDS011;50730;48.628;8.994;2023-08-31T02:15:47;8.60;;;4.20;;
64405;SDS011;50730;48.628;8.994;2023-08-31T02:18:17;9.70;;;4.60;;
64405;SDS011;50730;48.628;8.994;2023-08-31T02:20:45;7.97;;;4.82;;
64405;SDS011;50730;48.628;8.994;2023-08-31T02:23:12;9.18;;;4.10;;
64405;SDS011;50730;48.628;8.994;2023-08-31T02:25:39;12.18;;;4.93;;
64405;SDS011;50730;48.628;8.994;2023-08-31T02:28:07;8.40;;;4.75;;
64405;SDS011;50730;48.628;8.994;2023-08-31T02:30:34;8.35;;;4.65;;
64405;SDS011;50730;48.628;8.994;2023-08-31T02:33:03;8.52;;;4.30;;
64405;SDS011;50730;48.628;8.994;2023-08-31T02:35:30;8.40;;;4.32;;
64405;SDS011;50730;48.628;8.994;2023-08-31T02:37:57;9.85;;;4.82;;
64405;SDS011;50730;48.628;8.994;2023-08-31T02:40:24;11.65;;;4.28;;
64405;SDS011;50730;48.628;8.994;2023-08-31T02:42:51;8.57;;;4.53;;
64405;SDS011;50730;48.628;8.994;2023-08-31T02:45:18;9.43;;;4.60;;
64405;SDS011;50730;48.628;8.994;2023-08-31T02:47:46;8.70;;;4.63;;
64405;SDS011;50730;48.628;8.994;2023-08-31T02:50:16;7.72;;;4.35;;
64405;SDS011;50730;48.628;8.994;2023-08-31T02:52:43;9.48;;;4.60;;
64405;SDS011;50730;48.628;8.994;2023-08-31T02:55:10;10.65;;;4.70;;
64405;SDS011;50730;48.628;8.994;2023-08-31T02:57:37;8.10;;;4.60;;
64405;SDS011;50730;48.628;8.994;2023-08-31T03:02:40;10.02;;;4.72;;
64405;SDS011;50730;48.628;8.994;2023-08-31T03:05:08;8.50;;;4.70;;
64405;SDS011;50730;48.628;8.994;2023-08-31T03:07:37;8.45;;;5.32;;
64405;SDS011;50730;48.628;8.994;2023-08-31T03:10:05;9.43;;;5.18;;
64405;SDS011;50730;48.628;8.994;2023-08-31T03:12:32;9.32;;;4.85;;
64405;SDS011;50730;48.628;8.994;2023-08-31T03:14:59;11.07;;;5.00;;
64405;SDS011;50730;48.628;8.994;2023-08-31T03:17:27;9.75;;;5.35;;
64405;SDS011;50730;48.628;8.994;2023-08-31T03:19:54;12.20;;;5.60;;
64405;SDS011;50730;48.628;8.994;2023-08-31T03:22:21;8.90;;;5.30;;
64405;SDS011;50730;48.628;8.994;2023-08-31T03:24:50;10.10;;;5.68;;
64405;SDS011;50730;48.628;8.994;2023-08-31T03:27:17;14.77;;;5.20;;
64405;SDS011;50730;48.628;8.994;2023-08-31T03:29:44;14.23;;;5.60;;
64405;SDS011;50730;48.628;8.994;2023-08-31T03:32:11;10.68;;;5.60;;
64405;SDS011;50730;48.628;8.994;2023-08-31T03:34:39;13.90;;;6.50;;
64405;SDS011;50730;48.628;8.994;2023-08-31T03:37:06;11.10;;;5.78;;
64405;SDS011;50730;48.628;8.994;2023-08-31T03:39:34;13.57;;;5.75;;
64405;SDS011;50730;48.628;8.994;2023-08-31T03:42:03;11.35;;;5.40;;
64405;SDS011;50730;48.628;8.994;2023-08-31T03:44:30;11.02;;;5.43;;
64405;SDS011;50730;48.628;8.994;2023-08-31T03:46:58;9.00;;;5.38;;
64405;SDS011;50730;48.628;8.994;2023-08-31T03:49:25;9.75;;;5.43;;
64405;SDS011;50730;48.628;8.994;2023-08-31T03:51:52;10.15;;;5.30;;
64405;SDS011;50730;48.628;8.994;2023-08-31T03:54:19;12.02;;;5.65;;
64405;SDS011;50730;48.628;8.994;2023-08-31T03:56:46;9.85;;;5.40;;
64405;SDS011;50730;48.628;8.994;2023-08-31T03:59:15;8.40;;;4.57;;
64405;SDS011;50730;48.628;8.994;2023-08-31T04:01:43;10.30;;;5.32;;
64405;SDS011;50730;48.628;8.994;2023-08-31T04:04:11;11.07;;;5.78;;
64405;SDS011;50730;48.628;8.994;2023-08-31T04:06:38;9.13;;;5.28;;
64405;SDS011;50730;48.628;8.994;2023-08-31T04:09:05;10.20;;;4.78;;
64405;SDS011;50730;48.628;8.994;2023-08-31T04:11:33;11.63;;;4.90;;
64405;SDS011;50730;48.628;8.994;2023-08-31T04:14:00;8.85;;;4.38;;
64405;SDS011;50730;48.628;8.994;2023-08-31T04:16:28;9.38;;;4.90;;
64405;SDS011;50730;48.628;8.994;2023-08-31T04:18:55;7.68;;;3.72;;
64405;SDS011;50730;48.628;8.994;2023-08-31T04:21:22;10.18;;;5.32;;
64405;SDS011;50730;48.628;8.994;2023-08-31T04:23:50;9.82;;;4.55;;
64405;SDS011;50730;48.628;8.994;2023-08-31T04:26:17;9.05;;;4.80;;
64405;SDS011;50730;48.628;8.994;2023-08-31T04:28:45;8.82;;;4.78;;
64405;SDS011;50730;48.628;8.994;2023-08-31T04:31:12;9.57;;;5.32;;
64405;SDS011;50730;48.628;8.994;2023-08-31T04:33:41;9.88;;;4.97;;
64405;SDS011;50730;48.628;8.994;2023-08-31T04:36:08;8.68;;;5.32;;
64405;SDS011;50730;48.628;8.994;2023-08-31T04:38:35;11.02;;;5.30;;
64405;SDS011;50730;48.628;8.994;2023-08-31T04:41:03;12.60;;;4.80;;
64405;SDS011;50730;48.628;8.994;2023-08-31T04:43:30;11.68;;;4.93;;
64405;SDS011;50730;48.628;8.994;2023-08-31T04:45:57;12.23;;;5.38;;
64405;SDS011;50730;48.628;8.994;2023-08-31T04:48:24;11.10;;;5.50;;
64405;SDS011;50730;48.628;8.994;2023-08-31T04:50:55;9.82;;;5.07;;
64405;SDS011;50730;48.628;8.994;2023-08-31T04:53:22;13.13;;;5.28;;
64405;SDS011;50730;48.628;8.994;2023-08-31T04:55:49;9.43;;;5.32;;
64405;SDS011;50730;48.628;8.994;2023-08-31T04:58:16;12.90;;;5.25;;
64405;SDS011;50730;48.628;8.994;2023-08-31T05:00:44;9.13;;;5.13;;
64405;SDS011;50730;48.628;8.994;2023-08-31T05:06:08;16.10;;;4.70;;
64405;SDS011;50730;48.628;8.994;2023-08-31T05:08:35;12.43;;;4.85;;
64405;SDS011;50730;48.628;8.994;2023-08-31T05:11:03;9.10;;;5.30;;
64405;SDS011;50730;48.628;8.994;2023-08-31T05:13:30;8.80;;;5.03;;
64405;SDS011;50730;48.628;8.994;2023-08-31T05:15:57;12.73;;;5.00;;
64405;SDS011;50730;48.628;8.994;2023-08-31T05:18:25;10.35;;;4.53;;
64405;SDS011;50730;48.628;8.994;2023-08-31T05:20:52;12.18;;;4.38;;
64405;SDS011;50730;48.628;8.994;2023-08-31T05:23:20;12.93;;;4.80;;
64405;SDS011;50730;48.628;8.994;2023-08-31T05:25:47;9.15;;;4.75;;
64405;SDS011;50730;48.628;8.994;2023-08-31T05:28:14;9.38;;;4.93;;
64405;SDS011;50730;48.628;8.994;2023-08-31T05:30:48;10.23;;;5.03;;
64405;SDS011;50730;48.628;8.994;2023-08-31T05:33:16;9.30;;;4.55;;
64405;SDS011;50730;48.628;8.994;2023-08-31T05:35:43;13.73;;;4.93;;
64405;SDS011;50730;48.628;8.994;2023-08-31T05:38:10;9.88;;;4.45;;
64405;SDS011;50730;48.628;8.994;2023-08-31T05:40:39;7.05;;;3.78;;
64405;SDS011;50730;48.628;8.994;2023-08-31T05:43:10;9.43;;;4.28;;
64405;SDS011;50730;48.628;8.994;2023-08-31T05:45:37;6.57;;;3.85;;
64405;SDS011;50730;48.628;8.994;2023-08-31T05:48:04;8.90;;;3.60;;
64405;SDS011;50730;48.628;8.994;2023-08-31T05:50:32;10.55;;;3.97;;
64405;SDS011;50730;48.628;8.994;2023-08-31T05:52:59;12.23;;;4.13;;
64405;SDS011;50730;48.628;8.994;2023-08-31T05:55:26;7.03;;;3.65;;
64405;SDS011;50730;48.628;8.994;2023-08-31T05:57:55;8.32;;;3.58;;
64405;SDS011;50730;48.628;8.994;2023-08-31T06:00:22;8.52;;;4.07;;
64405;SDS011;50730;48.628;8.994;2023-08-31T06:02:49;8.23;;;3.95;;
64405;SDS011;50730;48.628;8.994;2023-08-31T06:05:16;7.97;;;4.38;;
64405;SDS011;50730;48.628;8.994;2023-08-31T06:07:44;11.45;;;3.97;;
64405;SDS011;50730;48.628;8.994;2023-08-31T06:10:11;8.95;;;4.25;;
64405;SDS011;50730;48.628;8.994;2023-08-31T06:12:40;6.97;;;3.75;;
64405;SDS011;50730;48.628;8.994;2023-08-31T06:15:09;10.50;;;4.13;;
64405;SDS011;50730;48.628;8.994;2023-08-31T06:17:36;10.68;;;5.28;;
64405;SDS011;50730;48.628;8.994;2023-08-31T06:20:04;9.13;;;4.20;;
64405;SDS011;50730;48.628;8.994;2023-08-31T06:22:31;8.40;;;5.25;;
64405;SDS011;50730;48.628;8.994;2023-08-31T06:24:58;10.18;;;4.45;;
64405;SDS011;50730;48.628;8.994;2023-08-31T06:27:25;8.45;;;4.60;;
64405;SDS011;50730;48.628;8.994;2023-08-31T06:29:53;8.30;;;4.13;;
64405;SDS011;50730;48.628;8.994;2023-08-31T06:32:22;7.93;;;3.80;;
64405;SDS011;50730;48.628;8.994;2023-08-31T06:34:49;9.18;;;3.80;;
64405;SDS011;50730;48.628;8.994;2023-08-31T06:37:16;9.93;;;3.75;;
64405;SDS011;50730;48.628;8.994;2023-08-31T06:39:45;7.05;;;3.00;;
64405;SDS011;50730;48.628;8.994;2023-08-31T06:42:12;9.65;;;3.38;;
64405;SDS011;50730;48.628;8.994;2023-08-31T06:44:39;6.18;;;3.30;;
64405;SDS011;50730;48.628;8.994;2023-08-31T06:47:07;24.15;;;7.78;;
64405;SDS011;50730;48.628;8.994;2023-08-31T06:49:36;8.63;;;3.63;;
64405;SDS011;50730;48.628;8.994;2023-08-31T06:52:03;10.90;;;3.80;;
64405;SDS011;50730;48.628;8.994;2023-08-31T06:54:32;6.30;;;2.80;;
64405;SDS011;50730;48.628;8.994;2023-08-31T06:57:00;10.43;;;3.17;;
64405;SDS011;50730;48.628;8.994;2023-08-31T06:59:28;7.35;;;2.97;;
64405;SDS011;50730;48.628;8.994;2023-08-31T07:01:55;5.80;;;3.00;;
64405;SDS011;50730;48.628;8.994;2023-08-31T07:04:22;6.30;;;2.72;;
64405;SDS011;50730;48.628;8.994;2023-08-31T07:06:50;4.47;;;2.45;;
64405;SDS011;50730;48.628;8.994;2023-08-31T07:09:18;6.18;;;2.50;;
64405;SDS011;50730;48.628;8.994;2023-08-31T07:11:45;5.70;;;2.30;;
64405;SDS011;50730;48.628;8.994;2023-08-31T07:14:12;7.72;;;2.95;;
64405;SDS011;50730;48.628;8.994;2023-08-31T07:16:39;4.55;;;2.47;;
64405;SDS011;50730;48.628;8.994;2023-08-31T07:19:06;5.70;;;2.15;;
64405;SDS011;50730;48.628;8.994;2023-08-31T07:21:34;4.03;;;1.90;;
64405;SDS011;50730;48.628;8.994;2023-08-31T07:24:03;4.43;;;1.77;;
64405;SDS011;50730;48.628;8.994;2023-08-31T07:26:30;4.97;;;2.13;;
64405;SDS011;50730;48.628;8.994;2023-08-31T07:28:59;5.68;;;2.03;;
64405;SDS011;50730;48.628;8.994;2023-08-31T07:31:29;5.97;;;1.90;;
64405;SDS011;50730;48.628;8.994;2023-08-31T07:33:57;3.20;;;1.65;;
64405;SDS011;50730;48.628;8.994;2023-08-31T07:36:24;3.63;;;1.70;;
64405;SDS011;50730;48.628;8.994;2023-08-31T07:38:51;7.78;;;2.03;;
64405;SDS011;50730;48.628;8.994;2023-08-31T07:41:19;4.75;;;1.83;;
64405;SDS011;50730;48.628;8.994;2023-08-31T07:43:47;3.75;;;1.63;;
64405;SDS011;50730;48.628;8.994;2023-08-31T07:46:15;5.82;;;1.80;;
64405;SDS011;50730;48.628;8.994;2023-08-31T07:48:42;3.47;;;1.58;;
64405;SDS011;50730;48.628;8.994;2023-08-31T07:51:09;6.22;;;1.50;;
64405;SDS011;50730;48.628;8.994;2023-08-31T07:53:37;3.53;;;1.70;;
64405;SDS011;50730;48.628;8.994;2023-08-31T07:56:04;2.95;;;1.50;;
64405;SDS011;50730;48.628;8.994;2023-08-31T07:58:32;5.68;;;1.67;;
64405;SDS011;50730;48.628;8.994;2023-08-31T08:01:00;3.08;;;1.40;;
64405;SDS011;50730;48.628;8.994;2023-08-31T08:03:27;3.58;;;1.50;;
64405;SDS011;50730;48.628;8.994;2023-08-31T08:05:55;6.90;;;1.70;;
64405;SDS011;50730;48.628;8.994;2023-08-31T08:08:22;3.50;;;1.45;;
64405;SDS011;50730;48.628;8.994;2023-08-31T08:10:51;5.35;;;1.60;;
64405;SDS011;50730;48.628;8.994;2023-08-31T08:13:19;8.07;;;1.48;;
64405;SDS011;50730;48.628;8.994;2023-08-31T08:15:47;3.22;;;1.27;;
64405;SDS011;50730;48.628;8.994;2023-08-31T08:18:14;3.95;;;1.65;;
64405;SDS011;50730;48.628;8.994;2023-08-31T08:20:42;2.58;;;1.27;;
64405;SDS011;50730;48.628;8.994;2023-08-31T08:23:09;3.00;;;1.40;;
64405;SDS011;50730;48.628;8.994;2023-08-31T08:25:36;6.30;;;1.35;;
64405;SDS011;50730;48.628;8.994;2023-08-31T08:28:03;4.88;;;1.25;;
64405;SDS011;50730;48.628;8.994;2023-08-31T08:30:30;6.97;;;1.17;;
64405;SDS011;50730;48.628;8.994;2023-08-31T08:32:59;3.45;;;1.20;;
64405;SDS011;50730;48.628;8.994;2023-08-31T08:35:26;2.92;;;1.10;;
64405;SDS011;50730;48.628;8.994;2023-08-31T08:37:53;5.80;;;1.42;;
64405;SDS011;50730;48.628;8.994;2023-08-31T08:40:20;3.25;;;1.30;;
64405;SDS011;50730;48.628;8.994;2023-08-31T08:42:48;2.78;;;1.20;;
64405;SDS011;50730;48.628;8.994;2023-08-31T08:45:15;4.60;;;1.30;;
64405;SDS011;50730;48.628;8.994;2023-08-31T08:47:43;3.25;;;1.33;;
64405;SDS011;50730;48.628;8.994;2023-08-31T08:50:12;3.00;;;1.25;;
64405;SDS011;50730;48.628;8.994;2023-08-31T08:52:39;4.38;;;1.15;;
64405;SDS011;50730;48.628;8.994;2023-08-31T08:55:07;6.07;;;1.83;;
64405;SDS011;50730;48.628;8.994;2023-08-31T08:57:34;5.57;;;1.15;;
64405;SDS011;50730;48.628;8.994;2023-08-31T09:00:02;5.07;;;1.20;;
64405;SDS011;50730;48.628;8.994;2023-08-31T09:02:30;5.50;;;1.38;;
64405;SDS011;50730;48.628;8.994;2023-08-31T09:04:57;5.47;;;1.13;;
64405;SDS011;50730;48.628;8.994;2023-08-31T09:07:25;4.47;;;1.52;;
64405;SDS011;50730;48.628;8.994;2023-08-31T09:09:56;4.53;;;1.30;;
64405;SDS011;50730;48.628;8.994;2023-08-31T09:12:23;7.25;;;1.50;;
64405;SDS011;50730;48.628;8.994;2023-08-31T09:14:57;3.72;;;1.25;;
64405;SDS011;50730;48.628;8.994;2023-08-31T09:17:24;6.55;;;1.40;;
64405;SDS011;50730;48.628;8.994;2023-08-31T09:19:58;2.53;;;0.98;;
64405;SDS011;50730;48.628;8.994;2023-08-31T09:22:30;3.53;;;1.05;;
64405;SDS011;50730;48.628;8.994;2023-08-31T09:24:57;2.88;;;1.10;;
64405;SDS011;50730;48.628;8.994;2023-08-31T09:27:24;5.50;;;1.15;;
64405;SDS011;50730;48.628;8.994;2023-08-31T09:29:54;2.85;;;1.20;;
64405;SDS011;50730;48.628;8.994;2023-08-31T09:32:21;4.82;;;1.33;;
64405;SDS011;50730;48.628;8.994;2023-08-31T09:34:48;5.20;;;1.15;;
64405;SDS011;50730;48.628;8.994;2023-08-31T09:37:16;4.20;;;1.20;;
64405;SDS011;50730;48.628;8.994;2023-08-31T09:39:44;4.32;;;1.30;;
64405;SDS011;50730;48.628;8.994;2023-08-31T09:42:11;4.45;;;1.30;;
64405;SDS011;50730;48.628;8.994;2023-08-31T09:44:42;4.15;;;1.33;;
64405;SDS011;50730;48.628;8.994;2023-08-31T09:47:11;3.58;;;1.10;;
64405;SDS011;50730;48.628;8.994;2023-08-31T09:49:39;8.60;;;1.48;;
64405;SDS011;50730;48.628;8.994;2023-08-31T09:52:08;4.93;;;1.42;;
64405;SDS011;50730;48.628;8.994;2023-08-31T09:54:36;3.80;;;1.25;;
64405;SDS011;50730;48.628;8.994;2023-08-31T09:57:04;4.40;;;1.20;;
64405;SDS011;50730;48.628;8.994;2023-08-31T09:59:32;4.43;;;1.33;;
64405;SDS011;50730;48.628;8.994;2023-08-31T10:01:59;7.40;;;1.30;;
64405;SDS011;50730;48.628;8.994;2023-08-31T10:04:28;4.55;;;1.35;;
64405;SDS011;50730;48.628;8.994;2023-08-31T10:06:57;3.58;;;1.10;;
64405;SDS011;50730;48.628;8.994;2023-08-31T10:09:25;3.38;;;1.20;;
64405;SDS011;50730;48.628;8.994;2023-08-31T10:11:52;1.75;;;1.08;;
64405;SDS011;50730;48.628;8.994;2023-08-31T10:14:21;2.40;;;1.02;;
64405;SDS011;50730;48.628;8.994;2023-08-31T10:16:49;5.18;;;1.05;;
64405;SDS011;50730;48.628;8.994;2023-08-31T10:19:17;3.53;;;1.10;;
64405;SDS011;50730;48.628;8.994;2023-08-31T10:21:44;4.88;;;1.40;;
64405;SDS011;50730;48.628;8.994;2023-08-31T10:24:11;4.13;;;1.35;;
64405;SDS011;50730;48.628;8.994;2023-08-31T10:26:39;4.63;;;1.30;;
64405;SDS011;50730;48.628;8.994;2023-08-31T10:29:06;5.43;;;1.25;;
64405;SDS011;50730;48.628;8.994;2023-08-31T10:31:34;3.30;;;1.35;;
64405;SDS011;50730;48.628;8.994;2023-08-31T10:34:03;3.15;;;0.90;;
64405;SDS011;50730;48.628;8.994;2023-08-31T10:36:38;6.75;;;1.45;;
64405;SDS011;50730;48.628;8.994;2023-08-31T10:39:06;4.32;;;1.30;;
64405;SDS011;50730;48.628;8.994;2023-08-31T10:41:34;3.80;;;1.70;;
64405;SDS011;50730;48.628;8.994;2023-08-31T10:44:02;4.10;;;1.23;;
64405;SDS011;50730;48.628;8.994;2023-08-31T10:46:30;2.60;;;1.10;;
64405;SDS011;50730;48.628;8.994;2023-08-31T10:48:58;4.03;;;1.38;;
64405;SDS011;50730;48.628;8.994;2023-08-31T10:51:26;4.80;;;1.40;;
64405;SDS011;50730;48.628;8.994;2023-08-31T10:54:03;4.50;;;1.50;;
64405;SDS011;50730;48.628;8.994;2023-08-31T10:56:31;3.83;;;1.15;;
64405;SDS011;50730;48.628;8.994;2023-08-31T10:58:58;3.78;;;1.50;;
64405;SDS011;50730;48.628;8.994;2023-08-31T11:04:12;2.80;;;1.30;;
64405;SDS011;50730;48.628;8.994;2023-08-31T11:06:39;4.53;;;1.17;;
64405;SDS011;50730;48.628;8.994;2023-08-31T11:09:07;3.80;;;1.20;;
64405;SDS011;50730;48.628;8.994;2023-08-31T11:11:37;3.85;;;1.30;;
64405;SDS011;50730;48.628;8.994;2023-08-31T11:14:04;3.65;;;1.00;;
64405;SDS011;50730;48.628;8.994;2023-08-31T11:16:31;2.83;;;1.15;;
64405;SDS011;50730;48.628;8.994;2023-08-31T11:18:58;3.33;;;1.20;;
64405;SDS011;50730;48.628;8.994;2023-08-31T11:21:29;5.10;;;1.50;;
64405;SDS011;50730;48.628;8.994;2023-08-31T11:23:57;4.43;;;1.30;;
64405;SDS011;50730;48.628;8.994;2023-08-31T11:26:25;4.10;;;1.25;;
64405;SDS011;50730;48.628;8.994;2023-08-31T11:28:52;6.72;;;1.35;;
64405;SDS011;50730;48.628;8.994;2023-08-31T11:31:23;2.70;;;1.20;;
64405;SDS011;50730;48.628;8.994;2023-08-31T11:33:50;4.78;;;1.20;;
64405;SDS011;50730;48.628;8.994;2023-08-31T11:36:17;3.63;;;1.35;;
64405;SDS011;50730;48.628;8.994;2023-08-31T11:38:46;3.17;;;1.13;;
64405;SDS011;50730;48.628;8.994;2023-08-31T11:41:14;3.95;;;1.40;;
64405;SDS011;50730;48.628;8.994;2023-08-31T11:43:41;3.83;;;1.50;;
64405;SDS011;50730;48.628;8.994;2023-08-31T11:46:08;3.40;;;1.38;;
64405;SDS011;50730;48.628;8.994;2023-08-31T11:48:36;3.35;;;1.30;;
64405;SDS011;50730;48.628;8.994;2023-08-31T11:51:03;4.43;;;2.00;;
64405;SDS011;50730;48.628;8.994;2023-08-31T11:53:30;5.07;;;1.23;;
64405;SDS011;50730;48.628;8.994;2023-08-31T11:56:01;2.95;;;1.10;;
64405;SDS011;50730;48.628;8.994;2023-08-31T11:58:28;3.35;;;1.15;;
64405;SDS011;50730;48.628;8.994;2023-08-31T12:00:56;3.22;;;0.98;;
64405;SDS011;50730;48.628;8.994;2023-08-31T12:03:24;5.38;;;1.23;;
64405;SDS011;50730;48.628;8.994;2023-08-31T12:05:51;3.97;;;1.05;;
64405;SDS011;50730;48.628;8.994;2023-08-31T12:08:25;4.45;;;1.10;;
64405;SDS011;50730;48.628;8.994;2023-08-31T12:10:52;3.45;;;1.33;;
64405;SDS011;50730;48.628;8.994;2023-08-31T12:13:21;5.20;;;1.02;;
64405;SDS011;50730;48.628;8.994;2023-08-31T12:15:53;3.40;;;1.20;;
64405;SDS011;50730;48.628;8.994;2023-08-31T12:18:21;3.40;;;0.98;;
64405;SDS011;50730;48.628;8.994;2023-08-31T12:20:49;2.92;;;1.30;;
64405;SDS011;50730;48.628;8.994;2023-08-31T12:23:17;5.95;;;1.23;;
64405;SDS011;50730;48.628;8.994;2023-08-31T12:25:47;4.28;;;1.20;;
64405;SDS011;50730;48.628;8.994;2023-08-31T12:28:14;3.60;;;1.40;;
64405;SDS011;50730;48.628;8.994;2023-08-31T12:30:48;3.58;;;1.13;;
64405;SDS011;50730;48.628;8.994;2023-08-31T12:33:15;4.32;;;1.48;;
64405;SDS011;50730;48.628;8.994;2023-08-31T12:35:42;2.60;;;1.00;;
64405;SDS011;50730;48.628;8.994;2023-08-31T12:38:10;3.17;;;1.35;;
64405;SDS011;50730;48.628;8.994;2023-08-31T12:40:38;3.05;;;1.38;;
64405;SDS011;50730;48.628;8.994;2023-08-31T12:43:05;5.45;;;1.35;;
64405;SDS011;50730;48.628;8.994;2023-08-31T12:45:32;5.38;;;1.52;;
64405;SDS011;50730;48.628;8.994;2023-08-31T12:48:01;3.70;;;1.15;;
64405;SDS011;50730;48.628;8.994;2023-08-31T12:50:29;4.35;;;1.75;;
64405;SDS011;50730;48.628;8.994;2023-08-31T12:52:56;4.88;;;1.35;;
64405;SDS011;50730;48.628;8.994;2023-08-31T12:55:23;2.70;;;1.00;;
64405;SDS011;50730;48.628;8.994;2023-08-31T12:57:51;4.72;;;1.58;;
64405;SDS011;50730;48.628;8.994;2023-08-31T13:00:18;2.67;;;1.20;;
64405;SDS011;50730;48.628;8.994;2023-08-31T13:02:45;4.38;;;1.15;;
64405;SDS011;50730;48.628;8.994;2023-08-31T13:05:14;4.15;;;1.52;;
64405;SDS011;50730;48.628;8.994;2023-08-31T13:07:41;4.10;;;1.38;;
64405;SDS011;50730;48.628;8.994;2023-08-31T13:10:08;1.95;;;1.00;;
64405;SDS011;50730;48.628;8.994;2023-08-31T13:12:36;3.33;;;1.17;;
64405;SDS011;50730;48.628;8.994;2023-08-31T13:15:03;5.10;;;1.42;;
64405;SDS011;50730;48.628;8.994;2023-08-31T13:17:33;3.03;;;1.10;;
64405;SDS011;50730;48.628;8.994;2023-08-31T13:20:00;5.80;;;1.88;;
64405;SDS011;50730;48.628;8.994;2023-08-31T13:22:29;5.20;;;1.30;;
64405;SDS011;50730;48.628;8.994;2023-08-31T13:24:57;4.97;;;1.73;;
64405;SDS011;50730;48.628;8.994;2023-08-31T13:27:24;3.72;;;1.48;;
64405;SDS011;50730;48.628;8.994;2023-08-31T13:29:51;5.65;;;1.25;;
64405;SDS011;50730;48.628;8.994;2023-08-31T13:32:18;4.45;;;1.13;;
64405;SDS011;50730;48.628;8.994;2023-08-31T13:34:45;4.68;;;1.27;;
64405;SDS011;50730;48.628;8.994;2023-08-31T13:37:12;4.80;;;1.30;;
64405;SDS011;50730;48.628;8.994;2023-08-31T13:39:41;3.13;;;1.30;;
64405;SDS011;50730;48.628;8.994;2023-08-31T13:42:08;3.08;;;1.23;;
64405;SDS011;50730;48.628;8.994;2023-08-31T13:44:35;4.80;;;1.20;;
64405;SDS011;50730;48.628;8.994;2023-08-31T13:47:02;2.45;;;1.08;;
64405;SDS011;50730;48.628;8.994;2023-08-31T13:49:31;4.68;;;1.35;;
64405;SDS011;50730;48.628;8.994;2023-08-31T13:51:59;5.07;;;1.02;;
64405;SDS011;50730;48.628;8.994;2023-08-31T13:54:26;2.40;;;1.20;;
64405;SDS011;50730;48.628;8.994;2023-08-31T13:56:54;2.40;;;1.00;;
64405;SDS011;50730;48.628;8.994;2023-08-31T13:59:21;5.40;;;1.38;;
64405;SDS011;50730;48.628;8.994;2023-08-31T14:01:49;4.30;;;1.48;;
64405;SDS011;50730;48.628;8.994;2023-08-31T14:04:16;5.22;;;1.15;;
64405;SDS011;50730;48.628;8.994;2023-08-31T14:06:43;4.22;;;1.23;;
64405;SDS011;50730;48.628;8.994;2023-08-31T14:09:10;4.75;;;1.20;;
64405;SDS011;50730;48.628;8.994;2023-08-31T14:14:42;4.45;;;1.20;;
64405;SDS011;50730;48.628;8.994;2023-08-31T14:17:11;4.18;;;1.35;;
64405;SDS011;50730;48.628;8.994;2023-08-31T14:19:38;2.45;;;1.15;;
64405;SDS011;50730;48.628;8.994;2023-08-31T14:22:05;4.05;;;1.30;;
64405;SDS011;50730;48.628;8.994;2023-08-31T14:24:34;4.60;;;1.20;;
64405;SDS011;50730;48.628;8.994;2023-08-31T14:27:02;3.97;;;1.30;;
64405;SDS011;50730;48.628;8.994;2023-08-31T14:29:30;3.63;;;1.13;;
64405;SDS011;50730;48.628;8.994;2023-08-31T14:31:58;4.00;;;1.15;;
64405;SDS011;50730;48.628;8.994;2023-08-31T14:34:25;5.00;;;1.17;;
64405;SDS011;50730;48.628;8.994;2023-08-31T14:36:53;4.40;;;1.13;;
64405;SDS011;50730;48.628;8.994;2023-08-31T14:39:22;5.22;;;1.30;;
64405;SDS011;50730;48.628;8.994;2023-08-31T14:41:54;3.33;;;1.10;;
64405;SDS011;50730;48.628;8.994;2023-08-31T14:44:21;3.53;;;1.10;;
64405;SDS011;50730;48.628;8.994;2023-08-31T14:46:48;5.50;;;1.77;;
64405;SDS011;50730;48.628;8.994;2023-08-31T14:49:17;3.63;;;1.25;;
64405;SDS011;50730;48.628;8.994;2023-08-31T14:51:44;5.78;;;1.75;;
64405;SDS011;50730;48.628;8.994;2023-08-31T14:54:11;4.80;;;1.33;;
64405;SDS011;50730;48.628;8.994;2023-08-31T14:56:38;6.57;;;1.33;;
64405;SDS011;50730;48.628;8.994;2023-08-31T14:59:05;3.28;;;1.13;;
64405;SDS011;50730;48.628;8.994;2023-08-31T15:01:33;3.33;;;1.40;;